Time;durP1;ratioP1;P1;durP2;ratioP2;P2;SDS_P1;SDS_P2;PMS_P1;PMS_P2;Temp;Humidity;BMP_temperature;BMP_pressure;BME280_temperature;BME280_humidity;BME280_pressure;Samples;Min_cycle;Max_cycle;Signal;HPM_P1;HPM_P2
2022/06/04 00:00:41;;;;;;;11.60;6.18;;;;;;;;;;4917444;28;20404;-84
2022/06/04 00:03:08;;;;;;;20.67;5.72;;;;;;;;;;4903781;29;20111;-84
2022/06/04 00:05:35;;;;;;;16.83;6.63;;;;;;;;;;4902006;29;20091;-83
2022/06/04 00:08:02;;;;;;;13.80;5.80;;;;;;;;;;4905981;29;20070;-84
2022/06/04 00:16:00;;;;;;;16.80;5.80;;;;;;;;;;4906257;29;20087;-83
2022/06/04 00:18:27;;;;;;;13.38;6.38;;;;;;;;;;4902516;29;20052;-83
2022/06/04 00:20:54;;;;;;;13.43;6.20;;;;;;;;;;4900880;29;20078;-84
2022/06/04 00:23:32;;;;;;;12.90;6.95;;;;;;;;;;4893064;29;20040;-84
2022/06/04 00:26:00;;;;;;;17.63;6.65;;;;;;;;;;4922038;29;20047;-83
2022/06/04 00:28:27;;;;;;;14.57;6.25;;;;;;;;;;4906833;29;20047;-83
2022/06/04 00:30:54;;;;;;;12.00;5.80;;;;;;;;;;4894981;29;20103;-83
2022/06/04 00:33:20;;;;;;;13.70;6.10;;;;;;;;;;4880639;29;20574;-83
2022/06/04 00:35:47;;;;;;;14.30;6.25;;;;;;;;;;4905601;29;20162;-83
2022/06/04 00:38:14;;;;;;;16.30;5.60;;;;;;;;;;4904695;29;20464;-83
2022/06/04 00:40:43;;;;;;;14.43;5.57;;;;;;;;;;4921714;29;20040;-84
2022/06/04 00:43:09;;;;;;;15.38;6.43;;;;;;;;;;4921465;29;20071;-83
2022/06/04 00:45:36;;;;;;;14.40;5.65;;;;;;;;;;4922397;29;20063;-84
2022/06/04 00:48:06;;;;;;;14.82;6.13;;;;;;;;;;4907655;29;20047;-83
2022/06/04 00:50:34;;;;;;;14.57;5.80;;;;;;;;;;4918054;29;20052;-85
2022/06/04 00:53:01;;;;;;;24.13;6.32;;;;;;;;;;4922993;29;20115;-84
2022/06/04 00:55:31;;;;;;;13.00;5.30;;;;;;;;;;4928972;29;20110;-84
2022/06/04 00:58:27;;;;;;;12.55;5.15;;;;;;;;;;4926143;29;20170;-83
2022/06/04 01:00:59;;;;;;;15.15;5.78;;;;;;;;;;4913251;29;20401;-83
2022/06/04 01:03:52;;;;;;;14.00;5.13;;;;;;;;;;4910551;29;20581;-83
2022/06/04 01:06:26;;;;;;;16.33;6.03;;;;;;;;;;4900768;29;20400;-83
2022/06/04 01:09:02;;;;;;;13.50;5.75;;;;;;;;;;4923197;29;20569;-85
2022/06/04 01:11:28;;;;;;;11.00;5.75;;;;;;;;;;4924243;29;20079;-84
2022/06/04 01:13:57;;;;;;;14.38;5.47;;;;;;;;;;4924839;29;20078;-85
2022/06/04 01:16:37;;;;;;;14.50;5.78;;;;;;;;;;4910058;29;20063;-84
2022/06/04 01:19:22;;;;;;;13.77;5.75;;;;;;;;;;4926014;29;20044;-85
2022/06/04 01:21:54;;;;;;;13.90;6.10;;;;;;;;;;4920037;29;20048;-84
2022/06/04 01:24:39;;;;;;;13.05;4.97;;;;;;;;;;4920469;29;20507;-84
2022/06/04 01:27:05;;;;;;;13.65;5.60;;;;;;;;;;4906806;29;20044;-83
2022/06/04 01:29:32;;;;;;;14.02;6.40;;;;;;;;;;4917667;29;20031;-83
2022/06/04 01:32:09;;;;;;;13.90;5.82;;;;;;;;;;4915336;29;20047;-83
2022/06/04 01:34:48;;;;;;;11.75;5.63;;;;;;;;;;4905990;29;20028;-83
2022/06/04 01:37:24;;;;;;;12.52;5.93;;;;;;;;;;4926677;29;20057;-83
2022/06/04 01:42:36;;;;;;;12.85;5.22;;;;;;;;;;4903832;29;20501;-84
2022/06/04 01:45:05;;;;;;;11.75;4.95;;;;;;;;;;4890349;29;20039;-83
2022/06/04 01:47:32;;;;;;;11.57;5.68;;;;;;;;;;4924220;29;20052;-84
2022/06/04 01:50:00;;;;;;;11.80;6.45;;;;;;;;;;4928107;29;20579;-85
2022/06/04 01:52:34;;;;;;;12.27;6.00;;;;;;;;;;4921557;29;20056;-84
2022/06/04 01:55:24;;;;;;;13.52;4.97;;;;;;;;;;4919078;29;20058;-84
2022/06/04 01:57:50;;;;;;;9.73;5.35;;;;;;;;;;4907361;29;20059;-83
2022/06/04 02:00:23;;;;;;;18.45;5.15;;;;;;;;;;4918415;29;20052;-83
2022/06/04 02:03:10;;;;;;;10.40;5.32;;;;;;;;;;4924084;29;20420;-84
2022/06/04 02:05:39;;;;;;;13.80;5.70;;;;;;;;;;4926671;29;20106;-85
2022/06/04 02:08:08;;;;;;;7.15;4.78;;;;;;;;;;4924441;29;20044;-84
2022/06/04 02:10:40;;;;;;;14.45;5.18;;;;;;;;;;4920381;29;20044;-84
2022/06/04 02:13:08;;;;;;;9.40;4.13;;;;;;;;;;4930919;29;20052;-85
2022/06/04 02:15:57;;;;;;;13.60;4.70;;;;;;;;;;4927806;29;20048;-84
2022/06/04 02:18:23;;;;;;;6.72;4.10;;;;;;;;;;4920085;29;20062;-85
2022/06/04 02:20:50;;;;;;;9.02;4.88;;;;;;;;;;4922525;29;20048;-84
2022/06/04 02:23:16;;;;;;;7.82;4.78;;;;;;;;;;4918867;29;20068;-83
2022/06/04 02:25:42;;;;;;;7.35;4.45;;;;;;;;;;4923401;29;20118;-84
2022/06/04 02:28:10;;;;;;;12.27;4.75;;;;;;;;;;4921001;29;20054;-84
2022/06/04 02:30:59;;;;;;;10.25;5.22;;;;;;;;;;4904478;29;20055;-84
2022/06/04 02:33:36;;;;;;;8.15;4.38;;;;;;;;;;4880414;29;20056;-84
2022/06/04 02:36:09;;;;;;;8.25;4.45;;;;;;;;;;4925372;29;20047;-85
2022/06/04 02:38:45;;;;;;;9.18;4.03;;;;;;;;;;4921652;29;20039;-85
2022/06/04 02:41:43;;;;;;;9.68;4.60;;;;;;;;;;4919778;29;20408;-83
2022/06/04 02:44:29;;;;;;;8.98;4.32;;;;;;;;;;4886018;29;20115;-84
2022/06/04 02:47:01;;;;;;;7.85;4.10;;;;;;;;;;4921910;29;20059;-84
2022/06/04 02:49:36;;;;;;;6.47;3.67;;;;;;;;;;4917186;29;20073;-83
2022/06/04 02:52:03;;;;;;;7.40;4.13;;;;;;;;;;4917604;29;20062;-83
2022/06/04 02:54:35;;;;;;;9.05;4.20;;;;;;;;;;4919430;29;20048;-84
2022/06/04 02:57:03;;;;;;;10.45;4.15;;;;;;;;;;4925830;29;20599;-83
2022/06/04 02:59:30;;;;;;;8.00;4.00;;;;;;;;;;4922086;29;20456;-83
2022/06/04 03:01:59;;;;;;;6.57;4.00;;;;;;;;;;4922269;29;20056;-84
2022/06/04 03:04:26;;;;;;;6.75;4.07;;;;;;;;;;4904466;29;20404;-83
2022/06/04 03:06:52;;;;;;;11.63;4.65;;;;;;;;;;4918377;29;20052;-83
2022/06/04 03:09:20;;;;;;;11.13;4.45;;;;;;;;;;4920714;29;20511;-83
2022/06/04 03:11:47;;;;;;;8.45;4.50;;;;;;;;;;4910514;29;20380;-84
2022/06/04 03:14:15;;;;;;;8.52;4.22;;;;;;;;;;4921457;29;20042;-85
2022/06/04 03:16:42;;;;;;;7.00;4.45;;;;;;;;;;4924937;29;20043;-84
2022/06/04 03:19:09;;;;;;;8.23;4.55;;;;;;;;;;4925380;29;20130;-83
2022/06/04 03:21:42;;;;;;;9.93;4.65;;;;;;;;;;4927688;29;20043;-85
2022/06/04 03:24:09;;;;;;;6.32;4.07;;;;;;;;;;4904378;29;20051;-83
2022/06/04 03:26:36;;;;;;;7.78;4.40;;;;;;;;;;4918875;29;20099;-84
2022/06/04 03:29:02;;;;;;;7.10;4.70;;;;;;;;;;4894358;29;20036;-85
2022/06/04 03:31:28;;;;;;;10.82;5.32;;;;;;;;;;4909900;29;20567;-85
2022/06/04 03:33:55;;;;;;;15.55;4.57;;;;;;;;;;4909576;29;20036;-84
2022/06/04 03:36:21;;;;;;;10.52;4.85;;;;;;;;;;4896507;29;20476;-86
2022/06/04 03:39:06;;;;;;;8.82;5.03;;;;;;;;;;4897996;29;20040;-86
2022/06/04 03:41:32;;;;;;;10.85;4.85;;;;;;;;;;4899465;29;20120;-85
2022/06/04 03:43:59;;;;;;;9.85;4.55;;;;;;;;;;4886341;29;20849;-85
2022/06/04 03:46:26;;;;;;;5.55;4.35;;;;;;;;;;4894197;29;20409;-85
2022/06/04 03:48:56;;;;;;;9.90;4.65;;;;;;;;;;4896000;29;20499;-86
2022/06/04 03:51:23;;;;;;;11.98;5.05;;;;;;;;;;4895334;29;21011;-85
2022/06/04 03:53:49;;;;;;;8.35;4.70;;;;;;;;;;4900221;29;20035;-85
2022/06/04 03:56:33;;;;;;;8.55;5.10;;;;;;;;;;4882837;29;20090;-85
2022/06/04 03:58:59;;;;;;;7.03;4.45;;;;;;;;;;4898067;29;20056;-84
2022/06/04 04:02:04;;;;;;;8.40;4.20;;;;;;;;;;4900285;29;20060;-83
2022/06/04 04:04:30;;;;;;;7.43;4.70;;;;;;;;;;4888567;29;20704;-84
2022/06/04 04:06:56;;;;;;;7.70;4.85;;;;;;;;;;4916804;29;20295;-84
2022/06/04 04:09:22;;;;;;;7.28;4.43;;;;;;;;;;4903402;29;20396;-84
2022/06/04 04:11:58;;;;;;;11.98;4.72;;;;;;;;;;4922197;29;20036;-83
2022/06/04 04:14:24;;;;;;;15.63;4.82;;;;;;;;;;4873310;29;20155;-84
2022/06/04 04:16:50;;;;;;;8.52;4.90;;;;;;;;;;4916328;29;20040;-85
2022/06/04 04:19:16;;;;;;;11.10;5.22;;;;;;;;;;4920136;29;20043;-82
2022/06/04 04:21:43;;;;;;;7.28;4.60;;;;;;;;;;4919414;29;20158;-83
2022/06/04 04:24:09;;;;;;;7.47;4.55;;;;;;;;;;4880862;29;20369;-83
2022/06/04 04:26:35;;;;;;;5.20;4.30;;;;;;;;;;4924970;29;20127;-83
2022/06/04 04:29:03;;;;;;;9.18;4.40;;;;;;;;;;4919270;29;20036;-83
2022/06/04 04:31:36;;;;;;;6.88;4.75;;;;;;;;;;4940046;29;20898;-82
2022/06/04 04:34:02;;;;;;;12.07;4.45;;;;;;;;;;4908190;29;20075;-83
2022/06/04 04:36:30;;;;;;;9.32;4.55;;;;;;;;;;4918087;29;20044;-83
2022/06/04 04:39:05;;;;;;;5.47;4.38;;;;;;;;;;4912897;29;20480;-83
2022/06/04 04:41:31;;;;;;;9.43;5.00;;;;;;;;;;4924374;29;20091;-82
2022/06/04 04:44:00;;;;;;;7.95;4.63;;;;;;;;;;4891574;29;20520;-82
2022/06/04 04:46:26;;;;;;;7.50;4.95;;;;;;;;;;4908744;29;20889;-82
2022/06/04 04:48:52;;;;;;;7.97;4.85;;;;;;;;;;4926434;29;20448;-82
2022/06/04 04:51:22;;;;;;;9.70;5.22;;;;;;;;;;4926986;29;20044;-83
2022/06/04 04:53:48;;;;;;;7.25;4.75;;;;;;;;;;4919769;29;20039;-82
2022/06/04 04:59:10;;;;;;;5.72;4.38;;;;;;;;;;4927219;29;20074;-83
2022/06/04 05:01:36;;;;;;;8.63;4.85;;;;;;;;;;4921978;29;20087;-81
2022/06/04 05:04:02;;;;;;;8.18;4.85;;;;;;;;;;4923519;29;20110;-82
2022/06/04 05:06:28;;;;;;;10.13;4.30;;;;;;;;;;4924621;29;20052;-82
2022/06/04 05:08:54;;;;;;;9.52;5.22;;;;;;;;;;4906116;29;20129;-82
2022/06/04 05:11:22;;;;;;;5.05;4.35;;;;;;;;;;4909728;29;20480;-82
2022/06/04 05:13:49;;;;;;;8.35;5.15;;;;;;;;;;4905275;29;20047;-82
2022/06/04 05:16:16;;;;;;;7.10;4.55;;;;;;;;;;4924361;29;20044;-82
2022/06/04 05:18:42;;;;;;;11.73;5.53;;;;;;;;;;4908673;29;20134;-81
2022/06/04 05:21:17;;;;;;;9.60;4.60;;;;;;;;;;4923250;29;20044;-82
2022/06/04 05:23:43;;;;;;;6.07;4.80;;;;;;;;;;4906885;29;20099;-82
2022/06/04 05:26:10;;;;;;;7.88;5.53;;;;;;;;;;4924765;29;20067;-82
2022/06/04 05:28:36;;;;;;;9.10;5.13;;;;;;;;;;4925581;29;20130;-82
2022/06/04 05:31:02;;;;;;;6.90;5.10;;;;;;;;;;4923832;29;20063;-82
2022/06/04 05:33:28;;;;;;;7.32;4.80;;;;;;;;;;4922736;29;20048;-82
2022/06/04 05:35:54;;;;;;;8.43;5.20;;;;;;;;;;4924659;29;20051;-82
2022/06/04 05:38:21;;;;;;;7.35;4.25;;;;;;;;;;4924941;29;20559;-84
2022/06/04 05:40:47;;;;;;;7.40;4.63;;;;;;;;;;4925503;29;20418;-84
2022/06/04 05:43:13;;;;;;;7.32;3.97;;;;;;;;;;4925708;29;20048;-83
2022/06/04 05:45:40;;;;;;;7.72;4.68;;;;;;;;;;4924893;29;20036;-83
2022/06/04 05:48:09;;;;;;;8.13;4.47;;;;;;;;;;4921145;29;20086;-83
2022/06/04 05:50:35;;;;;;;7.38;4.70;;;;;;;;;;4907306;29;20118;-82
2022/06/04 05:53:02;;;;;;;6.65;4.78;;;;;;;;;;4921596;29;20138;-82
2022/06/04 05:55:28;;;;;;;5.70;4.50;;;;;;;;;;4920864;29;20046;-83
2022/06/04 05:57:56;;;;;;;5.18;4.53;;;;;;;;;;4907041;29;20601;-81
2022/06/04 06:00:23;;;;;;;7.13;4.75;;;;;;;;;;4902082;29;20564;-82
2022/06/04 06:02:49;;;;;;;7.57;4.47;;;;;;;;;;4903765;29;20060;-81
2022/06/04 06:05:15;;;;;;;9.48;4.75;;;;;;;;;;4901091;29;20044;-82
2022/06/04 06:07:41;;;;;;;6.88;4.82;;;;;;;;;;4903520;29;20040;-82
2022/06/04 06:10:07;;;;;;;7.38;4.50;;;;;;;;;;4905712;29;20050;-84
2022/06/04 06:12:33;;;;;;;7.55;4.50;;;;;;;;;;4893502;29;20043;-83
2022/06/04 06:14:59;;;;;;;7.18;4.65;;;;;;;;;;4884287;29;20044;-83
2022/06/04 06:17:25;;;;;;;6.00;3.95;;;;;;;;;;4884597;29;20354;-84
2022/06/04 06:19:53;;;;;;;4.88;4.38;;;;;;;;;;4867663;29;20063;-85
2022/06/04 06:22:19;;;;;;;6.03;4.28;;;;;;;;;;4883937;29;20044;-84
2022/06/04 06:24:45;;;;;;;8.13;5.10;;;;;;;;;;4884993;29;20123;-84
2022/06/04 06:27:11;;;;;;;6.55;4.15;;;;;;;;;;4881246;29;20047;-84
2022/06/04 06:29:38;;;;;;;11.18;4.50;;;;;;;;;;4887207;29;20040;-84
2022/06/04 06:32:04;;;;;;;6.75;4.07;;;;;;;;;;4876671;29;20055;-84
2022/06/04 06:34:30;;;;;;;6.18;4.20;;;;;;;;;;4909097;29;20062;-84
2022/06/04 06:36:56;;;;;;;7.78;4.47;;;;;;;;;;4905773;29;20046;-84
2022/06/04 06:39:23;;;;;;;5.28;4.47;;;;;;;;;;4897384;29;20071;-84
2022/06/04 06:41:49;;;;;;;10.05;4.55;;;;;;;;;;4885054;29;20156;-84
2022/06/04 06:44:16;;;;;;;11.65;4.65;;;;;;;;;;4885934;29;20045;-84
2022/06/04 06:46:57;;;;;;;9.60;4.07;;;;;;;;;;4896367;29;20127;-84
2022/06/04 06:49:25;;;;;;;6.90;4.43;;;;;;;;;;4889276;29;20048;-84
2022/06/04 06:51:54;;;;;;;6.93;4.30;;;;;;;;;;4903095;29;20134;-83
2022/06/04 06:54:21;;;;;;;7.65;4.60;;;;;;;;;;4888233;29;20080;-84
2022/06/04 06:56:48;;;;;;;6.47;4.22;;;;;;;;;;4891480;29;20099;-84
2022/06/04 06:59:21;;;;;;;6.03;3.92;;;;;;;;;;4889368;29;20071;-83
2022/06/04 07:01:54;;;;;;;9.90;3.85;;;;;;;;;;4903039;29;20079;-84
2022/06/04 07:04:26;;;;;;;6.03;3.67;;;;;;;;;;4927897;29;20131;-84
2022/06/04 07:06:58;;;;;;;8.55;4.28;;;;;;;;;;4897407;29;20044;-84
2022/06/04 07:09:28;;;;;;;5.65;4.35;;;;;;;;;;4937520;29;20043;-83
2022/06/04 07:11:55;;;;;;;6.43;3.88;;;;;;;;;;4917705;29;20186;-83
2022/06/04 07:14:22;;;;;;;8.65;4.25;;;;;;;;;;4927813;29;20056;-84
2022/06/04 07:16:49;;;;;;;5.22;3.45;;;;;;;;;;4943386;28;20093;-83
2022/06/04 07:19:15;;;;;;;7.35;4.13;;;;;;;;;;4945391;28;20043;-84
2022/06/04 07:21:42;;;;;;;4.15;3.63;;;;;;;;;;4940830;28;20447;-84
2022/06/04 07:24:08;;;;;;;5.40;3.63;;;;;;;;;;4941238;29;20032;-83
2022/06/04 07:26:34;;;;;;;6.15;3.85;;;;;;;;;;4942128;28;20051;-83
2022/06/04 07:29:01;;;;;;;6.38;3.75;;;;;;;;;;4941844;28;20534;-83
2022/06/04 07:31:27;;;;;;;4.25;3.50;;;;;;;;;;4926342;29;20094;-84
2022/06/04 07:33:55;;;;;;;4.82;3.50;;;;;;;;;;4943655;29;20138;-83
2022/06/04 07:36:22;;;;;;;4.97;3.40;;;;;;;;;;4941897;28;20502;-83
2022/06/04 07:38:49;;;;;;;6.03;3.67;;;;;;;;;;4942315;28;20483;-84
2022/06/04 07:41:16;;;;;;;7.03;3.50;;;;;;;;;;4927780;29;20078;-83
2022/06/04 07:43:42;;;;;;;5.32;3.80;;;;;;;;;;4920352;29;20031;-83
2022/06/04 07:46:08;;;;;;;4.68;3.40;;;;;;;;;;4912531;29;20550;-83
2022/06/04 07:48:35;;;;;;;5.90;3.20;;;;;;;;;;4901753;29;21050;-83
2022/06/04 07:51:02;;;;;;;5.60;3.30;;;;;;;;;;4910350;29;20069;-84
2022/06/04 07:53:28;;;;;;;4.47;3.35;;;;;;;;;;4901144;29;20063;-82
2022/06/04 07:55:54;;;;;;;5.50;3.70;;;;;;;;;;4911940;29;20067;-83
2022/06/04 07:58:20;;;;;;;8.48;4.30;;;;;;;;;;4918704;29;20449;-83
2022/06/04 08:00:47;;;;;;;6.47;3.67;;;;;;;;;;4905571;29;20062;-83
2022/06/04 08:03:16;;;;;;;6.43;3.42;;;;;;;;;;4891095;29;20083;-84
2022/06/04 08:05:42;;;;;;;5.28;3.35;;;;;;;;;;4906036;29;20039;-84
2022/06/04 08:08:09;;;;;;;5.78;3.17;;;;;;;;;;4908039;29;20039;-85
2022/06/04 08:10:35;;;;;;;9.25;3.47;;;;;;;;;;4926473;29;20048;-83
2022/06/04 08:13:01;;;;;;;8.32;3.95;;;;;;;;;;4907767;29;20047;-83
2022/06/04 08:15:28;;;;;;;5.68;3.58;;;;;;;;;;4910647;29;20044;-83
2022/06/04 08:17:54;;;;;;;6.05;4.07;;;;;;;;;;4927487;29;20094;-84
2022/06/04 08:20:21;;;;;;;4.85;3.35;;;;;;;;;;4922605;29;20481;-84
2022/06/04 08:22:48;;;;;;;4.18;3.15;;;;;;;;;;4906646;29;20527;-83
2022/06/04 08:25:14;;;;;;;5.15;3.28;;;;;;;;;;4905603;29;20082;-82
2022/06/04 08:27:44;;;;;;;5.57;3.20;;;;;;;;;;4926742;29;20122;-83
2022/06/04 08:30:11;;;;;;;4.63;3.28;;;;;;;;;;4908622;29;20135;-83
2022/06/04 08:32:37;;;;;;;6.88;3.25;;;;;;;;;;4926786;29;20059;-84
2022/06/04 08:35:04;;;;;;;11.63;3.30;;;;;;;;;;4927619;29;20040;-83
2022/06/04 08:37:30;;;;;;;5.80;3.30;;;;;;;;;;4928214;29;20118;-84
2022/06/04 08:39:56;;;;;;;5.75;4.00;;;;;;;;;;4902322;29;20066;-82
2022/06/04 08:42:27;;;;;;;6.50;3.13;;;;;;;;;;4933073;29;20439;-83
2022/06/04 08:44:54;;;;;;;5.53;3.05;;;;;;;;;;4924960;29;20048;-83
2022/06/04 08:47:28;;;;;;;8.63;3.50;;;;;;;;;;4906812;29;20086;-83
2022/06/04 08:49:57;;;;;;;4.50;2.80;;;;;;;;;;4914816;29;20130;-83
2022/06/04 08:52:28;;;;;;;5.95;2.83;;;;;;;;;;4915194;29;20052;-84
2022/06/04 08:57:57;;;;;;;6.55;3.28;;;;;;;;;;4930814;29;20048;-83
2022/06/04 09:00:52;;;;;;;3.35;2.60;;;;;;;;;;4922196;29;20054;-83
2022/06/04 09:03:24;;;;;;;8.20;5.35;;;;;;;;;;4903942;29;20177;-83
2022/06/04 09:06:02;;;;;;;6.55;3.13;;;;;;;;;;4940599;29;20496;-83
2022/06/04 09:08:28;;;;;;;7.25;2.78;;;;;;;;;;4913236;29;20519;-82
2022/06/04 09:10:57;;;;;;;4.18;3.00;;;;;;;;;;4929122;29;20369;-83
2022/06/04 09:13:36;;;;;;;7.90;3.50;;;;;;;;;;4913940;29;20047;-82
2022/06/04 09:16:13;;;;;;;5.47;3.20;;;;;;;;;;4886045;29;20099;-84
2022/06/04 09:18:39;;;;;;;5.18;2.85;;;;;;;;;;4929454;29;20043;-84
2022/06/04 09:21:06;;;;;;;7.55;3.72;;;;;;;;;;4897161;29;20563;-83
2022/06/04 09:23:35;;;;;;;9.35;4.18;;;;;;;;;;4930155;29;20050;-84
2022/06/04 09:26:09;;;;;;;7.10;3.22;;;;;;;;;;4929030;29;20040;-83
2022/06/04 09:28:35;;;;;;;;;;;;;;;;;;4922390;29;20398;-82
2022/06/04 09:31:06;;;;;;;6.25;2.95;;;;;;;;;;4911376;29;19931;-82
2022/06/04 09:33:32;;;;;;;7.18;3.35;;;;;;;;;;4896553;29;20118;-82
2022/06/04 09:35:58;;;;;;;5.85;3.08;;;;;;;;;;4894488;29;20039;-82
2022/06/04 09:38:26;;;;;;;5.55;2.95;;;;;;;;;;4891144;29;20032;-82
2022/06/04 09:41:03;;;;;;;6.10;3.03;;;;;;;;;;4911366;29;20929;-83
2022/06/04 09:43:30;;;;;;;4.32;3.08;;;;;;;;;;4928839;29;20831;-81
2022/06/04 09:45:58;;;;;;;8.52;2.75;;;;;;;;;;4919220;29;20036;-83
2022/06/04 09:48:38;;;;;;;6.30;3.08;;;;;;;;;;4895546;29;20567;-82
2022/06/04 09:51:08;;;;;;;6.85;3.40;;;;;;;;;;4910941;29;21078;-82
2022/06/04 09:53:35;;;;;;;5.00;3.15;;;;;;;;;;4908894;29;20138;-83
2022/06/04 09:56:04;;;;;;;4.93;3.15;;;;;;;;;;4911068;29;20047;-82
2022/06/04 09:58:34;;;;;;;5.57;2.92;;;;;;;;;;4896560;29;20059;-83
2022/06/04 10:01:08;;;;;;;4.05;3.03;;;;;;;;;;4911754;29;20060;-82
2022/06/04 10:03:41;;;;;;;5.63;3.13;;;;;;;;;;4910683;29;20078;-83
2022/06/04 10:06:09;;;;;;;7.47;3.15;;;;;;;;;;4928277;29;20048;-82
2022/06/04 10:12:10;;;;;;;6.15;3.03;;;;;;;;;;4927680;29;20043;-82
2022/06/04 10:14:38;;;;;;;3.78;2.83;;;;;;;;;;4834923;29;20132;-83
2022/06/04 10:17:06;;;;;;;6.05;3.10;;;;;;;;;;4835654;29;20525;-82
2022/06/04 10:19:34;;;;;;;4.53;2.63;;;;;;;;;;4854281;29;20147;-83
2022/06/04 10:22:16;;;;;;;5.05;2.80;;;;;;;;;;4923641;29;20126;-83
2022/06/04 10:25:03;;;;;;;7.57;3.20;;;;;;;;;;4918743;29;20091;-83
2022/06/04 10:27:36;;;;;;;7.05;3.85;;;;;;;;;;4924017;29;20036;-83
2022/06/04 10:30:06;;;;;;;5.28;2.90;;;;;;;;;;4923625;29;20130;-82
2022/06/04 10:32:32;;;;;;;4.55;3.22;;;;;;;;;;4928038;29;20044;-82
2022/06/04 10:34:58;;;;;;;8.32;4.20;;;;;;;;;;4924339;29;20071;-82
2022/06/04 10:37:43;;;;;;;5.40;3.08;;;;;;;;;;4910174;29;20047;-82
2022/06/04 10:40:20;;;;;;;7.82;3.42;;;;;;;;;;4930257;29;20070;-82
2022/06/04 10:42:59;;;;;;;5.68;3.20;;;;;;;;;;4916754;29;20063;-81
2022/06/04 10:45:44;;;;;;;9.52;3.60;;;;;;;;;;4907851;29;20044;-83
2022/06/04 10:48:27;;;;;;;5.90;3.63;;;;;;;;;;4893321;29;20059;-83
2022/06/04 10:51:27;;;;;;;6.75;3.08;;;;;;;;;;4913678;29;20048;-82
2022/06/04 10:53:53;;;;;;;9.43;3.30;;;;;;;;;;4887193;29;20052;-82
2022/06/04 10:56:37;;;;;;;8.25;3.45;;;;;;;;;;4930531;29;20062;-83
2022/06/04 10:59:03;;;;;;;;;;;;;;;;;;4930983;29;20043;-83
2022/06/04 11:01:43;;;;;;;6.07;3.45;;;;;;;;;;4924767;29;20492;-83
2022/06/04 11:04:46;;;;;;;4.55;2.90;;;;;;;;;;4904507;29;20220;-83
2022/06/04 11:07:25;;;;;;;8.27;3.13;;;;;;;;;;4907124;29;20510;-82
2022/06/04 11:09:52;;;;;;;7.55;3.28;;;;;;;;;;4925322;28;20063;-82
2022/06/04 11:12:34;;;;;;;7.60;3.05;;;;;;;;;;4923710;29;20044;-82
2022/06/04 11:15:26;;;;;;;4.93;2.70;;;;;;;;;;4923444;29;20076;-82
2022/06/04 11:17:58;;;;;;;6.95;2.90;;;;;;;;;;4869081;29;20044;-84
2022/06/04 11:20:30;;;;;;;4.75;3.08;;;;;;;;;;4901552;29;20075;-84
2022/06/04 11:23:15;;;;;;;7.10;2.88;;;;;;;;;;4915120;29;20130;-84
2022/06/04 11:25:44;;;;;;;7.45;2.95;;;;;;;;;;4918159;29;20165;-83
2022/06/04 11:28:17;;;;;;;9.00;3.45;;;;;;;;;;4917709;29;20079;-82
2022/06/04 11:30:54;;;;;;;6.85;3.20;;;;;;;;;;4920625;29;20442;-82
2022/06/04 11:33:28;;;;;;;5.90;3.42;;;;;;;;;;4903723;29;20463;-83
2022/06/04 11:36:16;;;;;;;11.35;3.40;;;;;;;;;;4905126;29;20051;-83
2022/06/04 11:38:50;;;;;;;6.13;2.97;;;;;;;;;;4920223;29;20150;-82
2022/06/04 11:41:35;;;;;;;7.55;3.00;;;;;;;;;;4921194;29;20468;-82
2022/06/04 11:44:20;;;;;;;10.30;3.40;;;;;;;;;;4917555;29;20052;-82
2022/06/04 11:46:57;;;;;;;6.75;3.08;;;;;;;;;;4920930;29;20832;-84
2022/06/04 11:49:44;;;;;;;7.97;3.13;;;;;;;;;;4898713;29;20041;-84
2022/06/04 11:52:17;;;;;;;8.20;3.28;;;;;;;;;;4926960;29;20523;-84
2022/06/04 11:54:54;;;;;;;6.50;2.90;;;;;;;;;;4892197;29;20047;-83
2022/06/04 11:57:39;;;;;;;6.85;2.55;;;;;;;;;;4908455;29;20055;-83
2022/06/04 12:00:14;;;;;;;6.15;3.17;;;;;;;;;;4926620;29;20043;-84
2022/06/04 12:02:46;;;;;;;9.48;3.28;;;;;;;;;;4894029;29;20075;-84
2022/06/04 12:05:30;;;;;;;9.07;3.40;;;;;;;;;;4923939;29;20048;-84
2022/06/04 12:07:57;;;;;;;11.25;3.67;;;;;;;;;;4888890;29;20075;-84
2022/06/04 12:10:23;;;;;;;8.52;3.47;;;;;;;;;;4912574;29;20139;-83
2022/06/04 12:13:09;;;;;;;9.88;3.45;;;;;;;;;;4896581;29;20048;-84
2022/06/04 12:15:39;;;;;;;7.22;3.50;;;;;;;;;;4898250;29;20044;-84
2022/06/04 12:18:23;;;;;;;8.80;3.38;;;;;;;;;;4928080;29;20512;-82
2022/06/04 12:26:35;;;;;;;8.70;3.15;;;;;;;;;;4902321;29;20552;-83
2022/06/04 12:29:03;;;;;;;7.78;3.30;;;;;;;;;;4910269;29;20047;-82
2022/06/04 12:31:34;;;;;;;8.07;3.47;;;;;;;;;;4902105;29;20739;-82
2022/06/04 12:34:01;;;;;;;7.82;3.38;;;;;;;;;;4924891;29;20036;-82
2022/06/04 12:36:36;;;;;;;7.00;3.17;;;;;;;;;;4910562;29;20075;-82
2022/06/04 12:39:22;;;;;;;10.05;3.08;;;;;;;;;;4928627;29;20115;-82
2022/06/04 12:41:50;;;;;;;10.68;3.42;;;;;;;;;;4936001;29;20055;-83
2022/06/04 12:44:27;;;;;;;9.90;3.00;;;;;;;;;;4940609;29;20051;-85
2022/06/04 12:46:55;;;;;;;7.43;3.20;;;;;;;;;;4904098;29;20041;-85
2022/06/04 12:49:29;;;;;;;5.07;3.00;;;;;;;;;;4899828;29;20043;-82
2022/06/04 12:52:26;;;;;;;5.45;2.88;;;;;;;;;;4918813;29;20035;-82
2022/06/04 12:55:08;;;;;;;7.13;2.80;;;;;;;;;;4915315;29;20071;-84
2022/06/04 12:57:43;;;;;;;5.78;2.88;;;;;;;;;;4899866;29;20043;-84
2022/06/04 13:00:21;;;;;;;9.40;3.05;;;;;;;;;;4911115;29;20160;-83
2022/06/04 13:02:56;;;;;;;10.30;3.25;;;;;;;;;;4908968;29;20084;-84
2022/06/04 13:05:26;;;;;;;5.88;2.15;;;;;;;;;;4912132;29;20055;-82
2022/06/04 13:08:07;;;;;;;5.70;3.08;;;;;;;;;;4930075;29;20146;-83
2022/06/04 13:10:33;;;;;;;9.05;3.35;;;;;;;;;;4912454;29;20145;-82
2022/06/04 13:13:12;;;;;;;7.20;2.70;;;;;;;;;;4913622;29;20147;-82
2022/06/04 13:15:53;;;;;;;5.35;2.85;;;;;;;;;;4895856;29;20062;-82
2022/06/04 13:18:26;;;;;;;6.85;3.22;;;;;;;;;;4909854;29;20054;-82
2022/06/04 13:20:56;;;;;;;7.40;3.03;;;;;;;;;;4914027;29;20036;-83
2022/06/04 13:23:28;;;;;;;10.48;3.15;;;;;;;;;;4924969;29;20118;-83
2022/06/04 13:26:07;;;;;;;6.13;2.80;;;;;;;;;;4930675;29;20515;-82
2022/06/04 13:28:43;;;;;;;8.18;3.03;;;;;;;;;;4929019;29;20059;-83
2022/06/04 13:31:30;;;;;;;9.02;2.63;;;17.50;99.90;;;;;;4930873;29;20084;-83
2022/06/04 13:34:16;;;;;;;11.15;3.45;;;;;;;;;;4927115;29;20427;-83
2022/06/04 13:37:03;;;;;;;9.43;2.90;;;;;;;;;;4902264;29;20137;-83
2022/06/04 13:39:29;;;;;;;6.47;3.33;;;;;;;;;;4912298;29;20047;-81
2022/06/04 13:42:02;;;;;;;8.95;3.10;;;;;;;;;;4929455;29;20059;-82
2022/06/04 13:44:38;;;;;;;8.43;3.35;;;;;;;;;;4910303;29;20052;-82
2022/06/04 13:47:14;;;;;;;6.80;2.83;;;;;;;;;;4913474;29;20086;-83
2022/06/04 13:49:40;;;;;;;7.57;3.53;;;;;;;;;;4911592;29;20433;-83
2022/06/04 13:52:12;;;;;;;7.93;3.35;;;;;;;;;;4912978;29;20408;-82
2022/06/04 13:54:40;;;;;;;5.53;2.75;;;;;;;;;;4911478;29;20523;-83
2022/06/04 13:57:12;;;;;;;5.53;2.50;;;;;;;;;;4909993;29;20131;-84
2022/06/04 13:59:43;;;;;;;9.52;3.00;;;;;;;;;;4928366;29;20079;-84
2022/06/04 14:02:15;;;;;;;6.57;2.70;;;;;;;;;;4916521;29;20547;-85
2022/06/04 14:07:37;;;;;;;8.82;3.38;;;;;;;;;;4915594;29;20058;-82
2022/06/04 14:10:04;;;;;;;6.80;3.35;;;;;;;;;;4911294;29;20394;-83
2022/06/04 14:12:42;;;;;;;9.32;3.25;;;;;;;;;;4910712;29;20044;-83
2022/06/04 14:15:12;;;;;;;9.98;3.17;;;;;;;;;;4912260;29;20504;-83
2022/06/04 14:17:57;;;;;;;8.15;3.22;;;;;;;;;;4912725;29;20181;-82
2022/06/04 14:20:37;;;;;;;8.75;3.08;;;18.80;99.90;;;;;;4911386;29;20043;-82
2022/06/04 14:23:07;;;;;;;5.88;3.03;;;;;;;;;;4911960;29;20066;-83
2022/06/04 14:25:42;;;;;;;10.32;3.55;;;;;;;;;;4916723;29;20066;-81
2022/06/04 14:28:12;;;;;;;7.68;2.75;;;;;;;;;;4928044;29;20051;-84
2022/06/04 14:30:50;;;;;;;8.50;2.50;;;;;;;;;;4911113;29;20512;-82
2022/06/04 14:33:20;;;;;;;7.70;2.90;;;;;;;;;;4927471;29;20079;-83
2022/06/04 14:36:00;;;;;;;5.57;2.58;;;;;;;;;;4903975;29;20052;-84
2022/06/04 14:38:26;;;;;;;9.05;2.90;;;;;;;;;;4911969;29;20048;-83
2022/06/04 14:41:02;;;;;;;7.63;2.95;;;;;;;;;;4912999;29;20046;-83
2022/06/04 14:43:38;;;;;;;6.07;2.95;;;;;;;;;;4940232;29;20521;-84
2022/06/04 14:46:07;;;;;;;7.38;2.42;;;;;;;;;;4910733;29;20051;-84
2022/06/04 14:48:45;;;;;;;7.38;2.90;;;;;;;;;;4908743;29;20047;-82
2022/06/04 14:51:30;;;;;;;6.55;2.58;;;19.20;99.90;;;;;;4922916;29;20044;-84
2022/06/04 14:53:56;;;;;;;5.68;2.75;;;;;;;;;;4913043;29;20047;-83
2022/06/04 14:56:25;;;;;;;7.85;2.63;;;;;;;;;;4927629;29;20144;-83
2022/06/04 14:58:51;;;;;;;4.97;2.17;;;;;;;;;;4911463;29;20039;-83
2022/06/04 15:01:26;;;;;;;8.25;2.38;;;;;;;;;;4916805;29;20093;-83
2022/06/04 15:03:56;;;;;;;9.32;2.97;;;;;;;;;;4881480;29;20051;-83
2022/06/04 15:06:31;;;;;;;8.15;2.78;;;;;;;;;;4929532;29;20496;-84
2022/06/04 15:09:00;;;;;;;6.93;2.72;;;;;;;;;;4906862;29;20546;-83
2022/06/04 15:11:49;;;;;;;7.20;2.78;;;;;;;;;;4906548;29;20047;-84
2022/06/04 15:14:25;;;;;;;8.90;2.85;;;;;;;;;;4896061;29;20134;-84
2022/06/04 15:16:56;;;;;;;5.45;2.78;;;;;;;;;;4924478;29;20047;-83
2022/06/04 15:19:22;;;;;;;7.75;2.72;;;;;;;;;;4912184;29;20079;-84
2022/06/04 15:21:55;;;;;;;6.15;3.10;;;;;;;;;;4910444;29;20072;-83
2022/06/04 15:24:21;;;;;;;4.55;2.65;;;;;;;;;;4928719;29;20052;-83
2022/06/04 15:26:53;;;;;;;8.43;3.13;;;19.30;99.90;;;;;;4924207;29;20050;-84
2022/06/04 15:35:21;;;;;;;7.05;2.88;;;19.00;99.90;;;;;;4898005;29;20055;-83